Time;durP1;ratioP1;P1;durP2;ratioP2;P2;SDS_P1;SDS_P2;PMS_P1;PMS_P2;Temp;Humidity;BMP_temperature;BMP_pressure;BME280_temperature;BME280_humidity;BME280_pressure;Samples;Min_cycle;Max_cycle;Signal;HPM_P1;HPM_P2
2021/11/22 00:01:36;;;;;;;2.67;1.38;;;22.50;46.90;;;;;;4932279;29;20203;-50
2021/11/22 00:04:09;;;;;;;3.05;1.13;;;22.60;46.90;;;;;;4932256;29;20247;-52
2021/11/22 00:06:40;;;;;;;3.08;1.20;;;22.60;46.90;;;;;;4932084;29;20311;-54
2021/11/22 00:09:10;;;;;;;4.03;1.10;;;22.60;46.90;;;;;;4932090;29;20255;-51
2021/11/22 00:11:41;;;;;;;5.20;1.10;;;22.60;46.90;;;;;;4933037;29;20200;-48
2021/11/22 00:14:14;;;;;;;2.80;1.30;;;22.60;46.90;;;;;;4933388;29;21174;-48
2021/11/22 00:16:45;;;;;;;4.15;1.45;;;22.60;47.00;;;;;;4932004;29;20231;-51
2021/11/22 00:19:16;;;;;;;3.75;1.27;;;22.60;47.00;;;;;;4931576;29;20222;-52
2021/11/22 00:21:46;;;;;;;3.17;0.93;;;22.60;47.00;;;;;;4930613;29;20211;-57
2021/11/22 00:24:17;;;;;;;2.15;1.20;;;22.70;46.90;;;;;;4932793;29;20271;-55
2021/11/22 00:26:47;;;;;;;4.15;1.10;;;22.70;46.90;;;;;;4932331;29;20684;-54
2021/11/22 00:29:20;;;;;;;2.50;1.08;;;22.70;46.90;;;;;;4931732;29;20235;-53
2021/11/22 00:31:52;;;;;;;2.30;1.10;;;22.70;46.80;;;;;;4932485;29;20199;-55
2021/11/22 00:34:22;;;;;;;3.50;1.33;;;22.80;46.80;;;;;;4931473;29;20302;-50
2021/11/22 00:36:53;;;;;;;1.67;1.00;;;22.80;46.80;;;;;;4933107;29;20723;-53
2021/11/22 00:39:24;;;;;;;2.65;0.93;;;22.80;46.70;;;;;;4932256;29;20212;-49
2021/11/22 00:41:54;;;;;;;2.20;1.00;;;22.80;46.60;;;;;;4931828;29;20215;-52
2021/11/22 00:44:27;;;;;;;3.17;1.15;;;22.80;46.60;;;;;;4931425;29;20215;-56
2021/11/22 00:46:57;;;;;;;3.10;0.93;;;22.80;46.70;;;;;;4931645;29;20676;-54
2021/11/22 00:49:28;;;;;;;2.92;1.10;;;22.90;46.80;;;;;;4930709;29;20255;-49
2021/11/22 00:51:58;;;;;;;2.70;1.00;;;22.90;46.70;;;;;;4931060;29;20211;-51
2021/11/22 00:54:29;;;;;;;2.63;0.85;;;22.90;46.70;;;;;;4930186;29;20228;-55
2021/11/22 00:57:00;;;;;;;2.80;1.00;;;22.90;46.60;;;;;;4931838;29;20251;-54
2021/11/22 00:59:32;;;;;;;4.85;1.35;;;22.90;46.70;;;;;;4930832;29;20258;-49
2021/11/22 01:02:03;;;;;;;2.45;1.15;;;22.90;46.70;;;;;;4931409;29;20614;-52
2021/11/22 01:04:36;;;;;;;3.92;1.35;;;22.90;46.70;;;;;;4930609;29;20286;-51
2021/11/22 01:07:07;;;;;;;1.50;0.95;;;23.00;46.70;;;;;;4931436;29;20211;-53
2021/11/22 01:09:38;;;;;;;4.78;1.23;;;23.00;46.70;;;;;;4931251;29;20208;-51
2021/11/22 01:12:09;;;;;;;1.77;1.00;;;23.00;46.60;;;;;;4930312;29;20207;-54
2021/11/22 01:14:41;;;;;;;2.28;1.10;;;23.00;46.60;;;;;;4930804;29;20290;-49
2021/11/22 01:17:14;;;;;;;2.08;0.88;;;23.00;46.50;;;;;;4930984;29;20295;-49
2021/11/22 01:19:44;;;;;;;4.57;1.20;;;23.00;46.50;;;;;;4931006;29;20240;-52
2021/11/22 01:22:15;;;;;;;3.17;1.02;;;23.10;46.50;;;;;;4931513;29;20663;-50
2021/11/22 01:24:46;;;;;;;5.93;1.17;;;23.10;46.50;;;;;;4928335;29;20275;-52
2021/11/22 01:27:16;;;;;;;2.88;1.40;;;23.10;46.40;;;;;;4931163;29;20203;-50
2021/11/22 01:29:49;;;;;;;3.65;1.35;;;23.10;46.40;;;;;;4929901;29;20199;-52
2021/11/22 01:32:19;;;;;;;2.53;1.10;;;23.10;46.40;;;;;;4931471;29;20676;-47
2021/11/22 01:34:50;;;;;;;3.42;1.20;;;23.10;46.40;;;;;;4928194;29;20228;-47
2021/11/22 01:37:21;;;;;;;2.95;1.23;;;23.20;46.40;;;;;;4930307;29;20231;-48
2021/11/22 01:39:52;;;;;;;2.78;1.10;;;23.20;46.40;;;;;;4930247;29;20703;-47
2021/11/22 01:42:22;;;;;;;2.50;0.90;;;23.20;46.40;;;;;;4930225;29;20255;-56
2021/11/22 01:44:55;;;;;;;3.83;1.23;;;23.20;46.40;;;;;;4931531;29;20286;-51
2021/11/22 01:47:25;;;;;;;2.53;1.30;;;23.20;46.50;;;;;;4929780;29;20256;-52
2021/11/22 01:49:56;;;;;;;2.13;1.05;;;23.20;46.50;;;;;;4930895;29;20208;-47
2021/11/22 01:52:27;;;;;;;2.60;1.20;;;23.20;46.50;;;;;;4930251;29;20736;-50
2021/11/22 01:54:57;;;;;;;2.13;1.00;;;23.20;46.50;;;;;;4930220;29;20231;-49
2021/11/22 01:57:28;;;;;;;4.75;1.30;;;23.20;46.50;;;;;;4928754;29;20294;-49
2021/11/22 02:00:00;;;;;;;3.85;1.02;;;23.20;46.50;;;;;;4929581;29;20204;-55
2021/11/22 02:02:31;;;;;;;4.65;1.30;;;23.30;46.40;;;;;;4930238;29;20203;-47
2021/11/22 02:05:01;;;;;;;3.30;1.20;;;23.30;46.40;;;;;;4929899;29;20696;-52
2021/11/22 02:07:32;;;;;;;3.88;1.42;;;23.30;46.40;;;;;;4930009;29;20351;-51
2021/11/22 02:10:02;;;;;;;5.97;1.20;;;23.30;46.30;;;;;;4930907;29;20259;-49
2021/11/22 02:12:35;;;;;;;2.30;1.30;;;23.30;46.30;;;;;;4929971;29;20263;-52
2021/11/22 02:15:10;;;;;;;2.40;1.05;;;23.30;46.30;;;;;;4929785;29;20231;-54
2021/11/22 02:17:43;;;;;;;2.45;1.05;;;23.30;46.30;;;;;;4929748;29;20223;-54
2021/11/22 02:20:17;;;;;;;3.13;1.10;;;23.30;46.30;;;;;;4930466;29;20232;-51
2021/11/22 02:22:50;;;;;;;3.47;1.05;;;23.40;46.30;;;;;;4929899;29;20246;-54
2021/11/22 02:25:22;;;;;;;3.17;1.20;;;23.40;46.30;;;;;;4929732;29;20224;-52
2021/11/22 02:27:53;;;;;;;2.58;1.10;;;23.40;46.30;;;;;;4930636;29;20211;-51
2021/11/22 02:30:31;;;;;;;2.70;1.00;;;23.40;46.30;;;;;;4930531;29;20215;-55
2021/11/22 02:33:03;;;;;;;2.33;1.05;;;23.40;46.30;;;;;;4930515;29;20694;-52
2021/11/22 02:35:37;;;;;;;2.85;1.17;;;23.40;46.30;;;;;;4930089;29;20222;-53
2021/11/22 02:38:07;;;;;;;3.58;1.13;;;23.40;46.30;;;;;;4929436;29;20223;-46
2021/11/22 02:40:38;;;;;;;2.00;1.02;;;23.50;46.20;;;;;;4928189;29;20211;-57
2021/11/22 02:43:09;;;;;;;4.25;1.30;;;23.40;46.10;;;;;;4928980;29;20208;-53
2021/11/22 02:45:39;;;;;;;3.65;1.38;;;23.50;46.20;;;;;;4928959;29;20330;-52
2021/11/22 02:48:10;;;;;;;2.08;0.90;;;23.50;46.20;;;;;;4929024;29;20267;-53
2021/11/22 02:50:42;;;;;;;3.95;1.33;;;23.50;46.10;;;;;;4928912;29;20211;-55
2021/11/22 02:53:13;;;;;;;3.00;1.00;;;23.50;46.10;;;;;;4929413;29;20270;-52
2021/11/22 02:55:43;;;;;;;2.22;1.05;;;23.50;46.10;;;;;;4930729;29;20280;-50
2021/11/22 02:58:14;;;;;;;2.85;1.20;;;23.50;46.30;;;;;;4930136;29;20267;-54
2021/11/22 03:00:45;;;;;;;3.08;1.48;;;23.50;46.00;;;;;;4927335;29;20262;-50
2021/11/22 03:03:16;;;;;;;1.92;1.10;;;23.50;46.00;;;;;;4928135;29;20203;-55
2021/11/22 03:05:48;;;;;;;2.75;1.02;;;23.60;46.00;;;;;;4928586;29;20223;-52
2021/11/22 03:08:19;;;;;;;2.95;1.20;;;23.60;46.00;;;;;;4928818;29;20203;-56
2021/11/22 03:10:50;;;;;;;3.50;1.25;;;23.60;45.90;;;;;;4928336;29;20203;-54
2021/11/22 03:13:20;;;;;;;3.30;1.27;;;23.60;45.90;;;;;;4927483;29;20263;-54
2021/11/22 03:15:51;;;;;;;3.83;1.20;;;23.60;45.90;;;;;;4928279;29;20278;-53
2021/11/22 03:18:21;;;;;;;4.03;1.30;;;23.60;45.90;;;;;;4928929;29;20199;-57
2021/11/22 03:20:54;;;;;;;2.60;1.00;;;23.60;45.90;;;;;;4929046;29;20195;-50
2021/11/22 03:23:25;;;;;;;2.78;1.10;;;23.60;45.90;;;;;;4933685;29;20211;-56
2021/11/22 03:25:56;;;;;;;2.35;1.20;;;23.60;45.90;;;;;;4935676;29;20219;-50
2021/11/22 03:28:28;;;;;;;1.77;0.85;;;23.60;45.90;;;;;;4935114;29;20207;-52
2021/11/22 03:30:58;;;;;;;2.65;1.17;;;23.60;45.90;;;;;;4935269;29;20203;-55
2021/11/22 03:33:29;;;;;;;1.52;1.00;;;23.60;45.90;;;;;;4935851;29;20202;-50
2021/11/22 03:36:02;;;;;;;2.90;1.35;;;23.60;45.90;;;;;;4935112;29;20223;-55
2021/11/22 03:38:33;;;;;;;2.67;1.15;;;23.70;45.90;;;;;;4935424;29;20209;-52
2021/11/22 03:41:09;;;;;;;2.85;1.10;;;23.70;45.90;;;;;;4935677;29;20211;-50
2021/11/22 03:43:46;;;;;;;3.15;1.30;;;23.70;45.90;;;;;;4935590;29;20226;-51
2021/11/22 03:46:18;;;;;;;4.10;1.13;;;23.70;45.80;;;;;;4935088;29;20225;-55
2021/11/22 03:48:49;;;;;;;2.80;1.23;;;23.70;45.90;;;;;;4935220;29;20251;-51
2021/11/22 03:51:22;;;;;;;4.30;1.42;;;23.70;45.90;;;;;;4935238;29;20251;-54
2021/11/22 03:53:53;;;;;;;2.75;1.25;;;23.70;45.90;;;;;;4934279;29;20199;-48
2021/11/22 03:56:24;;;;;;;6.00;1.30;;;23.70;46.40;;;;;;4935111;29;20283;-49
2021/11/22 03:58:54;;;;;;;3.63;1.50;;;23.70;45.90;;;;;;4934741;29;20203;-52
2021/11/22 04:01:25;;;;;;;6.90;1.92;;;23.70;46.00;;;;;;4934825;29;20621;-50
2021/11/22 04:03:56;;;;;;;9.88;2.67;;;23.70;46.20;;;;;;4936460;29;20212;-52
2021/11/22 04:06:28;;;;;;;8.10;2.08;;;23.70;46.20;;;;;;4935699;29;20254;-56
2021/11/22 04:08:59;;;;;;;13.00;2.30;;;23.70;46.30;;;;;;4935813;29;20196;-52
2021/11/22 04:11:29;;;;;;;10.95;2.30;;;23.70;46.10;;;;;;4934940;29;20771;-47
2021/11/22 04:14:00;;;;;;;7.00;1.90;;;23.70;46.10;;;;;;4934511;29;20271;-49
2021/11/22 04:16:31;;;;;;;6.25;1.92;;;23.70;46.10;;;;;;4934811;29;20735;-50
2021/11/22 04:19:01;;;;;;;16.02;2.28;;;23.70;46.20;;;;;;4935160;29;20341;-51
2021/11/22 04:21:34;;;;;;;7.18;2.20;;;23.70;46.10;;;;;;4935610;29;20983;-50
2021/11/22 04:24:06;;;;;;;4.40;1.65;;;23.70;46.70;;;;;;4934628;29;20196;-52
2021/11/22 04:26:36;;;;;;;7.38;1.63;;;23.70;46.00;;;;;;4935138;29;20610;-52
2021/11/22 04:29:11;;;;;;;9.82;1.98;;;23.70;46.00;;;;;;4935261;29;20267;-55
2021/11/22 04:31:41;;;;;;;8.23;2.28;;;23.70;46.00;;;;;;4936083;29;20515;-55
2021/11/22 04:34:12;;;;;;;5.88;1.95;;;23.70;46.10;;;;;;4932606;29;20266;-53
2021/11/22 04:36:44;;;;;;;5.53;1.90;;;23.70;46.20;;;;;;4930961;29;20361;-52
2021/11/22 04:39:15;;;;;;;8.68;1.88;;;23.70;46.30;;;;;;4931873;29;20199;-53
2021/11/22 04:41:47;;;;;;;4.15;1.65;;;23.70;46.30;;;;;;4932544;29;20758;-52
2021/11/22 04:44:18;;;;;;;8.38;2.40;;;23.70;46.20;;;;;;4931754;29;20250;-54
2021/11/22 04:46:48;;;;;;;8.43;2.15;;;23.60;46.20;;;;;;4931530;29;20211;-54
2021/11/22 04:49:19;;;;;;;6.65;1.95;;;23.70;46.30;;;;;;4931494;29;20200;-54
2021/11/22 04:51:52;;;;;;;6.30;1.85;;;23.70;46.30;;;;;;4931989;29;20220;-53
2021/11/22 04:54:22;;;;;;;4.15;1.60;;;23.60;46.20;;;;;;4931680;29;20283;-52
2021/11/22 04:56:53;;;;;;;5.90;1.70;;;23.60;46.20;;;;;;4931756;29;20692;-55
2021/11/22 04:59:23;;;;;;;6.72;1.75;;;23.60;46.20;;;;;;4930098;29;20263;-52
2021/11/22 05:01:54;;;;;;;5.82;1.65;;;23.60;46.20;;;;;;4931451;29;20204;-52
2021/11/22 05:04:24;;;;;;;4.40;1.60;;;23.60;46.10;;;;;;4931852;29;20219;-50
2021/11/22 05:06:57;;;;;;;6.47;1.50;;;23.60;46.10;;;;;;4931341;29;20680;-54
2021/11/22 05:09:28;;;;;;;6.05;2.25;;;23.60;46.10;;;;;;4930596;29;20218;-53
2021/11/22 05:11:58;;;;;;;5.35;1.73;;;23.60;46.10;;;;;;4931553;29;20214;-53
2021/11/22 05:14:29;;;;;;;5.68;1.65;;;23.60;46.00;;;;;;4930903;29;20219;-52
2021/11/22 05:17:00;;;;;;;5.57;1.65;;;23.60;46.00;;;;;;4931123;29;20219;-52
2021/11/22 05:19:32;;;;;;;5.80;1.67;;;23.60;46.00;;;;;;4929427;29;20208;-53
2021/11/22 05:22:06;;;;;;;4.40;1.83;;;23.60;46.00;;;;;;4930402;29;20223;-53
2021/11/22 05:24:36;;;;;;;5.32;1.63;;;23.60;46.00;;;;;;4930647;29;20290;-55
2021/11/22 05:27:07;;;;;;;3.95;1.70;;;23.50;45.90;;;;;;4931463;29;20204;-55
2021/11/22 05:29:38;;;;;;;3.60;1.50;;;23.50;45.90;;;;;;4930901;29;20263;-51
2021/11/22 05:32:09;;;;;;;4.22;1.50;;;23.60;46.00;;;;;;4930605;29;20255;-54
2021/11/22 05:34:39;;;;;;;6.78;1.73;;;23.50;45.90;;;;;;4931306;29;20751;-51
2021/11/22 05:37:12;;;;;;;5.65;2.40;;;23.50;45.90;;;;;;4930592;29;20223;-56
2021/11/22 05:39:43;;;;;;;4.20;1.77;;;23.50;46.00;;;;;;4930745;29;20203;-54
2021/11/22 05:42:14;;;;;;;6.78;1.92;;;23.50;46.00;;;;;;4930045;29;20259;-51
2021/11/22 05:44:45;;;;;;;3.72;1.55;;;23.50;46.00;;;;;;4930502;29;20286;-56
2021/11/22 05:47:18;;;;;;;5.78;1.58;;;23.50;46.00;;;;;;4930615;29;20795;-52
2021/11/22 05:49:49;;;;;;;3.08;1.48;;;23.40;46.00;;;;;;4929749;29;20199;-54
2021/11/22 05:52:23;;;;;;;4.55;1.80;;;23.40;45.90;;;;;;4930526;29;20200;-53
2021/11/22 05:54:55;;;;;;;5.20;1.60;;;23.40;45.90;;;;;;4931154;29;20220;-54
2021/11/22 05:57:26;;;;;;;4.07;1.58;;;23.40;45.90;;;;;;4930120;29;20220;-52
2021/11/22 05:59:57;;;;;;;5.60;1.90;;;23.40;45.90;;;;;;4930473;29;20254;-47
2021/11/22 06:02:28;;;;;;;4.38;1.48;;;23.40;46.50;;;;;;4929843;29;20818;-50
2021/11/22 06:04:58;;;;;;;5.88;1.67;;;23.40;45.90;;;;;;4928272;29;20271;-47
2021/11/22 06:07:31;;;;;;;5.70;1.63;;;23.40;45.90;;;;;;4929329;29;20219;-54
2021/11/22 06:10:01;;;;;;;4.90;1.50;;;23.40;46.00;;;;;;4929213;29;20250;-50
2021/11/22 06:12:32;;;;;;;4.60;1.92;;;23.40;46.00;;;;;;4928335;29;20212;-49
2021/11/22 06:15:03;;;;;;;7.20;2.05;;;23.40;45.90;;;;;;4929982;29;20290;-49
2021/11/22 06:17:34;;;;;;;5.38;1.35;;;23.30;45.90;;;;;;4930475;29;20306;-50
2021/11/22 06:20:06;;;;;;;3.53;1.48;;;23.30;46.00;;;;;;4928183;29;20207;-51
2021/11/22 06:22:39;;;;;;;3.95;1.95;;;23.30;46.00;;;;;;4930721;29;21668;-51
2021/11/22 06:25:10;;;;;;;5.18;2.22;;;23.30;46.00;;;;;;4929308;29;20215;-47
2021/11/22 06:27:40;;;;;;;4.03;1.75;;;23.30;46.00;;;;;;4930053;29;20777;-51
2021/11/22 06:30:11;;;;;;;5.57;1.60;;;23.30;45.90;;;;;;4929210;29;20708;-50
2021/11/22 06:32:42;;;;;;;6.38;2.10;;;23.30;46.00;;;;;;4929845;29;20243;-51
2021/11/22 06:35:13;;;;;;;3.38;1.55;;;23.30;46.00;;;;;;4930022;29;20224;-48
2021/11/22 06:37:45;;;;;;;10.00;2.20;;;23.20;46.00;;;;;;4929525;29;20588;-40
2021/11/22 06:40:16;;;;;;;10.02;3.00;;;23.20;46.00;;;;;;4929976;29;20212;-49
2021/11/22 06:42:48;;;;;;;12.75;2.55;;;23.20;45.90;;;;;;4929540;29;20211;-51
2021/11/22 06:45:19;;;;;;;10.52;2.30;;;23.00;45.90;;;;;;4929883;29;20282;-51
2021/11/22 06:47:50;;;;;;;5.20;1.60;;;22.90;46.00;;;;;;4930084;29;20200;-51
2021/11/22 06:50:21;;;;;;;10.43;2.78;;;22.90;46.20;;;;;;4929671;29;20199;-50
2021/11/22 06:52:53;;;;;;;8.60;2.55;;;22.80;46.20;;;;;;4929258;29;20255;-50
2021/11/22 06:55:24;;;;;;;8.07;1.88;;;22.80;46.40;;;;;;4929653;29;20278;-50
2021/11/22 06:57:54;;;;;;;8.00;2.50;;;22.80;46.40;;;;;;4928949;29;20219;-53
2021/11/22 07:00:25;;;;;;;11.45;2.30;;;22.80;46.40;;;;;;4928759;29;20247;-52
2021/11/22 07:02:56;;;;;;;6.95;2.17;;;22.70;46.40;;;;;;4928907;29;20302;-51
2021/11/22 07:05:28;;;;;;;9.43;1.90;;;22.70;46.40;;;;;;4928759;29;20694;-52
2021/11/22 07:08:00;;;;;;;10.48;2.78;;;22.70;46.40;;;;;;4930490;29;20208;-47
2021/11/22 07:10:31;;;;;;;5.93;1.70;;;22.70;46.50;;;;;;4929019;29;20214;-54
2021/11/22 07:13:01;;;;;;;8.30;2.10;;;22.60;46.50;;;;;;4928641;29;20672;-52
2021/11/22 07:15:35;;;;;;;6.63;1.80;;;22.60;46.50;;;;;;4928890;29;20235;-49
2021/11/22 07:18:06;;;;;;;8.02;2.42;;;22.60;46.50;;;;;;4927873;29;20219;-50
2021/11/22 07:20:37;;;;;;;6.20;2.00;;;22.60;46.50;;;;;;4928162;29;20620;-46
2021/11/22 07:23:09;;;;;;;6.20;1.98;;;22.60;46.50;;;;;;4929894;29;20195;-50
2021/11/22 07:25:40;;;;;;;7.32;2.08;;;22.60;46.50;;;;;;4924985;29;21555;-46
2021/11/22 07:28:11;;;;;;;6.18;1.83;;;22.60;46.60;;;;;;4929045;29;20247;-49
2021/11/22 07:30:41;;;;;;;5.32;1.80;;;22.60;46.60;;;;;;4928915;29;20203;-48
2021/11/22 07:33:12;;;;;;;5.75;1.63;;;22.50;46.40;;;;;;4928253;29;20195;-50
2021/11/22 07:35:43;;;;;;;7.05;1.92;;;22.60;46.60;;;;;;4928272;29;20262;-51
2021/11/22 07:38:16;;;;;;;5.63;1.70;;;22.50;46.50;;;;;;4928342;29;20286;-46
2021/11/22 07:40:46;;;;;;;4.70;1.90;;;22.50;46.50;;;;;;4929061;29;20210;-47
2021/11/22 07:43:18;;;;;;;4.82;2.08;;;22.50;46.50;;;;;;4928804;29;20607;-48
2021/11/22 07:45:48;;;;;;;5.53;2.00;;;22.50;46.50;;;;;;4928060;29;20279;-52
2021/11/22 07:48:19;;;;;;;5.50;1.80;;;22.50;46.50;;;;;;4928059;29;20204;-49
2021/11/22 07:50:50;;;;;;;6.50;1.73;;;22.50;46.60;;;;;;4926470;29;20203;-49
2021/11/22 07:53:22;;;;;;;6.15;1.73;;;22.40;46.50;;;;;;4929436;29;20247;-49
2021/11/22 07:55:53;;;;;;;4.40;1.77;;;22.50;46.60;;;;;;4929392;29;20215;-49
2021/11/22 07:58:23;;;;;;;4.93;1.80;;;22.40;46.50;;;;;;4924904;29;20310;-50
2021/11/22 08:00:54;;;;;;;3.95;1.48;;;22.40;46.60;;;;;;4928705;29;20204;-51
2021/11/22 08:03:25;;;;;;;4.35;1.67;;;22.40;46.60;;;;;;4929050;29;20703;-50
2021/11/22 08:05:57;;;;;;;4.35;1.55;;;22.40;46.60;;;;;;4929340;29;20231;-47
2021/11/22 08:08:32;;;;;;;4.35;1.52;;;22.40;46.60;;;;;;4928435;29;20703;-50
2021/11/22 08:11:30;;;;;;;3.08;1.50;;;22.40;46.60;;;;;;4931490;29;20215;-50
2021/11/22 08:14:01;;;;;;;4.22;1.58;;;22.40;46.60;;;;;;4931806;29;20203;-52
2021/11/22 08:16:31;;;;;;;5.78;1.77;;;22.40;46.60;;;;;;4931541;29;20207;-52
2021/11/22 08:19:02;;;;;;;2.95;1.55;;;22.30;46.60;;;;;;4931278;29;20314;-50
2021/11/22 08:21:34;;;;;;;3.33;1.48;;;22.30;46.60;;;;;;4932532;29;20191;-53
2021/11/22 08:24:07;;;;;;;6.47;1.80;;;22.30;46.70;;;;;;4932051;29;20677;-49
2021/11/22 08:26:37;;;;;;;5.07;1.85;;;22.30;46.70;;;;;;4931793;29;20251;-47
2021/11/22 08:29:08;;;;;;;6.90;1.90;;;22.30;46.70;;;;;;4930383;29;20207;-53
2021/11/22 08:31:39;;;;;;;4.00;1.50;;;22.30;46.70;;;;;;4932008;29;20204;-53
2021/11/22 08:34:10;;;;;;;7.90;1.77;;;22.30;46.70;;;;;;4931905;29;20263;-54
2021/11/22 08:36:40;;;;;;;7.32;1.88;;;22.20;46.60;;;;;;4931157;29;20208;-52
2021/11/22 08:39:13;;;;;;;4.85;1.70;;;22.20;46.70;;;;;;4931814;29;20626;-52
2021/11/22 08:41:43;;;;;;;3.42;1.40;;;22.20;46.80;;;;;;4931505;29;20258;-48
2021/11/22 08:44:14;;;;;;;4.38;1.63;;;22.20;46.80;;;;;;4932440;29;20212;-51
2021/11/22 08:46:47;;;;;;;4.22;1.40;;;22.20;46.80;;;;;;4931836;29;20607;-49
2021/11/22 08:49:18;;;;;;;6.55;1.63;;;22.20;46.80;;;;;;4931910;29;20219;-52
2021/11/22 08:51:49;;;;;;;4.97;1.52;;;22.10;46.80;;;;;;4930610;29;20269;-49
2021/11/22 08:54:21;;;;;;;4.38;1.50;;;22.10;46.80;;;;;;4932646;29;20246;-52
2021/11/22 08:56:52;;;;;;;5.00;1.55;;;22.10;46.80;;;;;;4931957;29;20622;-53
2021/11/22 08:59:23;;;;;;;3.63;1.50;;;22.10;46.80;;;;;;4931140;29;20227;-52
2021/11/22 09:01:54;;;;;;;4.05;1.80;;;22.10;46.80;;;;;;4930829;29;20267;-50
2021/11/22 09:04:24;;;;;;;4.97;1.50;;;22.10;46.80;;;;;;4930571;29;20215;-48
2021/11/22 09:06:56;;;;;;;3.88;2.05;;;22.10;46.90;;;;;;4931917;29;20211;-48
2021/11/22 09:09:28;;;;;;;6.20;1.88;;;22.00;46.80;;;;;;4931059;29;20200;-49
2021/11/22 09:11:59;;;;;;;4.97;1.67;;;22.00;46.90;;;;;;4930777;29;20211;-50
2021/11/22 09:14:30;;;;;;;5.32;1.83;;;22.00;46.90;;;;;;4930887;29;20700;-48
2021/11/22 09:17:00;;;;;;;5.47;1.70;;;22.00;46.90;;;;;;4930815;29;20207;-54
2021/11/22 09:19:32;;;;;;;5.72;1.67;;;22.00;46.90;;;;;;4932118;29;20223;-53
2021/11/22 09:22:02;;;;;;;6.25;2.05;;;22.00;46.90;;;;;;4930824;29;20286;-53
2021/11/22 09:24:35;;;;;;;4.72;1.75;;;21.90;46.90;;;;;;4932099;29;20271;-54
2021/11/22 09:27:06;;;;;;;4.05;1.50;;;21.90;46.90;;;;;;4931253;29;20195;-51
2021/11/22 09:29:37;;;;;;;4.78;1.52;;;21.90;46.90;;;;;;4931233;29;20251;-55
2021/11/22 09:32:08;;;;;;;2.83;1.30;;;21.90;46.90;;;;;;4931116;29;20204;-51
2021/11/22 09:34:40;;;;;;;3.83;1.73;;;21.90;46.90;;;;;;4932171;29;20219;-54
2021/11/22 09:37:10;;;;;;;3.58;1.33;;;21.90;46.90;;;;;;4930713;29;20200;-52
2021/11/22 09:39:43;;;;;;;5.78;1.50;;;21.90;47.00;;;;;;4929665;29;20227;-52
2021/11/22 09:42:14;;;;;;;5.00;1.73;;;21.90;47.00;;;;;;4896205;29;20255;-52
2021/11/22 09:44:45;;;;;;;4.47;1.40;;;21.90;46.90;;;;;;4906520;29;20319;-50
2021/11/22 09:47:16;;;;;;;4.00;1.33;;;21.80;46.90;;;;;;4931099;29;20259;-52
2021/11/22 09:49:46;;;;;;;5.55;1.60;;;21.80;46.90;;;;;;4930305;29;20204;-54
2021/11/22 09:52:17;;;;;;;4.55;1.48;;;21.80;46.90;;;;;;4928800;29;20626;-54
2021/11/22 09:54:52;;;;;;;5.47;1.83;;;21.80;46.90;;;;;;4930148;29;20575;-52
2021/11/22 09:57:23;;;;;;;3.63;1.42;;;21.80;47.00;;;;;;4922746;29;20254;-51
2021/11/22 09:59:53;;;;;;;3.53;1.67;;;21.80;47.00;;;;;;4929998;29;20227;-47
2021/11/22 10:02:43;;;;;;;4.25;1.60;;;21.80;47.00;;;;;;4930194;29;20233;-48
2021/11/22 10:05:25;;;;;;;2.67;1.27;;;21.70;47.00;;;;;;4929361;29;20235;-48
2021/11/22 10:08:05;;;;;;;2.25;1.13;;;21.70;47.00;;;;;;4930580;29;20220;-52
2021/11/22 10:10:42;;;;;;;3.20;1.60;;;21.70;47.00;;;;;;4930466;29;20222;-51
2021/11/22 10:13:27;;;;;;;2.42;1.15;;;21.70;47.00;;;;;;4928522;29;20247;-49
2021/11/22 10:15:59;;;;;;;4.40;1.40;;;21.70;47.10;;;;;;4926969;29;20219;-51
2021/11/22 10:18:32;;;;;;;3.60;1.50;;;21.70;47.10;;;;;;4929590;29;20274;-52
2021/11/22 10:21:07;;;;;;;3.58;1.65;;;21.60;47.00;;;;;;4930241;29;20215;-55
2021/11/22 10:23:42;;;;;;;3.80;1.40;;;21.60;47.00;;;;;;4929924;29;20200;-50
2021/11/22 10:26:16;;;;;;;3.15;1.25;;;21.60;47.00;;;;;;4929271;29;20270;-56
2021/11/22 10:28:48;;;;;;;3.92;1.50;;;21.60;47.00;;;;;;4928796;29;20572;-50
2021/11/22 10:31:21;;;;;;;4.40;1.55;;;21.60;47.00;;;;;;4929508;29;20200;-53
2021/11/22 10:33:53;;;;;;;4.53;1.60;;;21.60;47.00;;;;;;4930653;29;20877;-51
2021/11/22 10:36:24;;;;;;;3.83;1.40;;;21.60;47.00;;;;;;4928884;29;20219;-55
2021/11/22 10:38:58;;;;;;;5.50;1.38;;;21.60;47.00;;;;;;4929511;29;20223;-53
2021/11/22 10:41:32;;;;;;;6.07;1.60;;;21.50;47.00;;;;;;4929379;29;20219;-53
2021/11/22 10:44:07;;;;;;;4.63;1.20;;;21.60;47.10;;;;;;4930820;29;20202;-55
2021/11/22 10:46:42;;;;;;;3.38;1.10;;;21.50;47.10;;;;;;4928452;29;20199;-50
2021/11/22 10:49:16;;;;;;;3.92;1.20;;;21.50;47.10;;;;;;4927494;29;20199;-50
2021/11/22 10:51:50;;;;;;;3.80;1.33;;;21.50;47.10;;;;;;4926789;29;20625;-50
2021/11/22 10:54:26;;;;;;;3.38;1.52;;;21.50;47.10;;;;;;4930496;29;20223;-51
2021/11/22 10:56:58;;;;;;;3.22;1.58;;;21.50;47.10;;;;;;4929827;29;20659;-49
2021/11/22 10:59:29;;;;;;;4.53;1.67;;;21.50;47.10;;;;;;4927606;29;20223;-52
2021/11/22 11:02:00;;;;;;;4.00;1.30;;;21.50;47.10;;;;;;4929603;29;20203;-48
2021/11/22 11:04:34;;;;;;;2.88;1.20;;;21.40;47.10;;;;;;4923683;29;20231;-49
2021/11/22 11:07:05;;;;;;;4.57;1.63;;;21.40;47.10;;;;;;4932702;29;20211;-50
2021/11/22 11:09:38;;;;;;;2.70;1.42;;;21.40;47.10;;;;;;4930793;29;20711;-49
2021/11/22 11:12:14;;;;;;;3.47;1.45;;;21.40;47.10;;;;;;4930549;29;20207;-50
2021/11/22 11:14:47;;;;;;;3.50;1.38;;;21.40;47.10;;;;;;4931109;29;21110;-51
2021/11/22 11:17:20;;;;;;;2.95;1.08;;;21.40;47.10;;;;;;4930664;29;20207;-54
2021/11/22 11:19:53;;;;;;;2.33;1.30;;;21.40;47.10;;;;;;4929777;29;20577;-50
2021/11/22 11:22:25;;;;;;;5.15;1.20;;;21.40;47.10;;;;;;4929396;29;20216;-52
2021/11/22 11:24:57;;;;;;;2.65;1.30;;;21.40;47.10;;;;;;4916017;29;20224;-48
2021/11/22 11:27:30;;;;;;;3.30;1.30;;;21.40;47.10;;;;;;4930625;29;20238;-49
2021/11/22 11:30:00;;;;;;;3.50;1.50;;;21.30;47.10;;;;;;4930046;29;20200;-48
2021/11/22 11:32:31;;;;;;;2.22;1.20;;;21.30;47.10;;;;;;4930637;29;20680;-51
2021/11/22 11:35:04;;;;;;;4.53;1.52;;;21.30;47.10;;;;;;4926799;29;20266;-51
2021/11/22 11:37:56;;;;;;;2.20;1.20;;;21.30;47.10;;;;;;4923099;29;20227;-47
2021/11/22 11:40:47;;;;;;;2.38;1.10;;;21.30;47.10;;;;;;4924534;29;20228;-47
2021/11/22 11:43:51;;;;;;;3.50;1.17;;;21.30;47.10;;;;;;4928677;29;20656;-50
2021/11/22 11:46:30;;;;;;;2.97;1.45;;;21.20;47.10;;;;;;4930067;29;20281;-54
2021/11/22 11:49:02;;;;;;;2.95;1.20;;;21.30;47.00;;;;;;4928065;29;20214;-55
2021/11/22 11:51:37;;;;;;;3.90;1.38;;;21.30;47.10;;;;;;4928847;29;20673;-46
2021/11/22 11:54:16;;;;;;;3.03;1.13;;;21.20;47.10;;;;;;4930939;29;20196;-48
2021/11/22 11:56:58;;;;;;;2.72;1.23;;;21.30;47.10;;;;;;4931158;29;20196;-50
2021/11/22 11:59:40;;;;;;;3.20;1.30;;;21.20;47.10;;;;;;4928887;29;20229;-47
2021/11/22 12:02:15;;;;;;;3.47;1.15;;;21.20;47.10;;;;;;4926735;29;20203;-48
2021/11/22 12:05:01;;;;;;;3.03;1.20;;;21.20;47.00;;;;;;4933127;29;20274;-52
2021/11/22 12:07:40;;;;;;;3.22;1.35;;;21.20;47.10;;;;;;4933224;29;20262;-50
2021/11/22 12:10:15;;;;;;;2.50;1.10;;;21.20;47.10;;;;;;4933004;29;20860;-47
2021/11/22 12:12:50;;;;;;;2.78;1.02;;;21.20;47.10;;;;;;4934134;29;20207;-52
2021/11/22 12:15:27;;;;;;;2.42;1.20;;;21.20;47.10;;;;;;4924477;29;20218;-46
2021/11/22 12:18:00;;;;;;;3.63;1.33;;;21.10;47.10;;;;;;4932694;29;20814;-50
2021/11/22 12:20:50;;;;;;;3.70;1.23;;;21.10;47.10;;;;;;4930980;29;20252;-48
2021/11/22 12:23:24;;;;;;;2.13;0.80;;;21.10;47.20;;;;;;4921489;29;20200;-47
2021/11/22 12:25:58;;;;;;;2.00;1.00;;;21.10;47.20;;;;;;4925389;29;20643;-49
2021/11/22 12:28:51;;;;;;;2.38;1.10;;;21.10;47.20;;;;;;4934842;29;20199;-49
2021/11/22 12:31:35;;;;;;;2.22;1.08;;;21.10;47.20;;;;;;4933443;29;20203;-51
2021/11/22 12:34:10;;;;;;;3.25;1.00;;;21.10;47.10;;;;;;4932217;29;20266;-49
2021/11/22 12:36:47;;;;;;;2.25;0.90;;;21.10;47.10;;;;;;4931942;29;20194;-50
2021/11/22 12:39:23;;;;;;;1.65;1.13;;;21.10;47.10;;;;;;4934572;29;20219;-47
2021/11/22 12:42:16;;;;;;;2.72;1.30;;;21.00;47.10;;;;;;4933339;29;20258;-50
2021/11/22 12:45:03;;;;;;;1.85;0.95;;;21.00;47.10;;;;;;4933302;29;20220;-53
2021/11/22 12:47:35;;;;;;;3.28;1.10;;;21.10;47.20;;;;;;4932491;29;20219;-54
2021/11/22 12:50:18;;;;;;;2.70;1.23;;;21.10;47.20;;;;;;4928916;29;20275;-47
2021/11/22 12:53:10;;;;;;;1.80;1.10;;;21.00;47.10;;;;;;4921198;29;20270;-52
2021/11/22 12:55:43;;;;;;;2.67;1.10;;;21.00;47.20;;;;;;4933789;29;20279;-52
2021/11/22 12:58:16;;;;;;;2.33;1.25;;;21.00;47.10;;;;;;4932946;29;20199;-49
2021/11/22 13:00:47;;;;;;;2.10;1.00;;;21.00;47.20;;;;;;4932352;29;20223;-49
2021/11/22 13:03:21;;;;;;;2.33;1.15;;;21.00;47.20;;;;;;4931318;29;20259;-46
2021/11/22 13:06:03;;;;;;;2.60;1.10;;;21.00;47.20;;;;;;4932777;29;20303;-46
2021/11/22 13:08:52;;;;;;;3.33;1.00;;;21.00;47.20;;;;;;4933307;29;20735;-50
2021/11/22 13:11:30;;;;;;;3.55;1.08;;;20.90;47.20;;;;;;4931945;29;20857;-48
2021/11/22 13:14:06;;;;;;;3.20;1.13;;;20.90;47.20;;;;;;4927329;29;20664;-50